Somerset, Colorado
Current Conditions -  °F | °C
As of 1:15 PM on Wednesday 28 Jan 2015 (Local Time) from KAJZ Reporting Station
Clear Clear  
Wind Chill: 55°   Ceiling: Unl
Heat Index: 55°   Visibility: 10mi
Dew Point: 31°   Wind: 5mph
Humidity: 41%   Direction: 240°WSW
Pressure: 30.23"   Gusts: NA
Location:  38.93°N, 107.47°W
Report Text: KAJZ 282015Z AUTO 24004KT 10SM CLR 13/00 A3023 RMK AO2 T01261005
Loading
Personal Weather Stations






























Interactive Weather Map New forecast layout! Learn more

10-Day Weather Forecast

Advertisements
Track Severe Weather on mobile